createdAt,value
2023-04-19T00:01:13.099Z,87.14
2023-04-19T00:03:40.920Z,87.46
2023-04-19T00:06:08.703Z,87.52
2023-04-19T00:08:36.281Z,87.88
2023-04-19T00:11:03.871Z,87.98
2023-04-19T00:13:31.426Z,88.10
2023-04-19T00:15:59.080Z,88.21
2023-04-19T00:18:26.772Z,88.20
2023-04-19T00:20:54.325Z,88.30
2023-04-19T00:23:21.972Z,88.19
2023-04-19T00:25:49.883Z,88.46
2023-04-19T00:28:17.471Z,88.41
2023-04-19T00:30:45.065Z,88.26
2023-04-19T00:33:12.966Z,88.26
2023-04-19T00:35:40.990Z,88.29
2023-04-19T00:38:08.931Z,88.48
2023-04-19T00:40:38.020Z,88.70
2023-04-19T00:43:05.698Z,88.74
2023-04-19T00:45:35.440Z,88.35
2023-04-19T00:48:03.253Z,88.11
2023-04-19T00:50:31.040Z,88.18
2023-04-19T00:52:58.748Z,87.93
2023-04-19T00:55:26.326Z,88.04
2023-04-19T00:57:54.376Z,87.93
2023-04-19T01:00:22.081Z,88.02
2023-04-19T01:02:49.894Z,88.05
2023-04-19T01:05:17.808Z,88.07
2023-04-19T01:07:45.540Z,88.09
2023-04-19T01:10:13.159Z,87.99
2023-04-19T01:12:40.758Z,88.01
2023-04-19T01:15:09.004Z,87.95
2023-04-19T01:17:37.370Z,88.17
2023-04-19T01:20:06.230Z,88.21
2023-04-19T01:22:34.606Z,87.98
2023-04-19T01:25:02.164Z,88.07
2023-04-19T01:27:29.782Z,87.91
2023-04-19T01:29:57.343Z,87.82
2023-04-19T01:32:24.995Z,87.71
2023-04-19T01:34:52.692Z,87.75
2023-04-19T01:37:20.253Z,87.70
2023-04-19T01:39:47.771Z,87.62
2023-04-19T01:42:15.326Z,87.44
2023-04-19T01:44:42.881Z,87.54
2023-04-19T01:47:10.611Z,87.58
2023-04-19T01:49:38.308Z,87.54
2023-04-19T01:52:05.861Z,87.72
2023-04-19T01:54:33.447Z,87.45
2023-04-19T01:57:01.006Z,87.59
2023-04-19T01:59:28.548Z,87.63
2023-04-19T02:01:56.145Z,87.51
2023-04-19T02:04:23.807Z,87.62
2023-04-19T02:06:51.401Z,87.65
2023-04-19T02:09:18.954Z,87.78
2023-04-19T02:11:46.558Z,87.94
2023-04-19T02:14:14.335Z,87.75
2023-04-19T02:16:42.159Z,87.71
2023-04-19T02:19:09.837Z,87.69
2023-04-19T02:21:37.405Z,88.02
2023-04-19T02:24:05.183Z,88.13
2023-04-19T02:26:32.723Z,87.97
2023-04-19T02:29:00.323Z,88.04
2023-04-19T02:31:27.946Z,88.22
2023-04-19T02:33:55.526Z,88.16
2023-04-19T02:36:23.354Z,87.99
2023-04-19T02:38:50.884Z,88.59
2023-04-19T02:41:18.677Z,88.29
2023-04-19T02:43:46.236Z,88.08
2023-04-19T02:46:13.797Z,87.99
2023-04-19T02:48:41.357Z,88.08
2023-04-19T02:51:15.103Z,88.08
2023-04-19T02:53:42.647Z,88.04
2023-04-19T02:56:10.248Z,88.22
2023-04-19T02:58:37.837Z,88.22
2023-04-19T03:01:05.562Z,88.35
2023-04-19T03:03:33.213Z,88.37
2023-04-19T03:06:00.842Z,88.19
2023-04-19T03:08:28.459Z,88.20
2023-04-19T03:10:56.048Z,88.23
2023-04-19T03:13:23.668Z,88.11
2023-04-19T03:15:51.261Z,88.16
2023-04-19T03:18:18.870Z,88.17
2023-04-19T03:20:46.361Z,88.21
2023-04-19T03:23:13.936Z,88.15
2023-04-19T03:25:41.541Z,88.40
2023-04-19T03:28:09.237Z,88.47
2023-04-19T03:30:36.765Z,88.50
2023-04-19T03:33:04.423Z,88.58
2023-04-19T03:35:32.031Z,88.79
2023-04-19T03:37:59.588Z,88.88
2023-04-19T03:40:27.171Z,88.83
2023-04-19T03:42:54.717Z,88.79
2023-04-19T03:45:22.357Z,88.78
2023-04-19T03:47:49.967Z,88.78
2023-04-19T03:50:17.636Z,88.88
2023-04-19T03:52:45.200Z,88.80
2023-04-19T03:55:12.807Z,88.79
2023-04-19T03:57:40.419Z,88.86
2023-04-19T04:00:08.630Z,88.99
2023-04-19T04:02:39.288Z,89.04
2023-04-19T04:05:07.432Z,89.04
2023-04-19T04:07:35.169Z,89.10
2023-04-19T04:10:02.733Z,89.25
2023-04-19T04:12:30.410Z,89.26
2023-04-19T04:14:57.964Z,89.14
2023-04-19T04:17:25.799Z,89.21
2023-04-19T04:19:53.383Z,89.19
2023-04-19T04:22:20.935Z,89.02
2023-04-19T04:24:48.492Z,89.06
2023-04-19T04:27:16.032Z,88.83
2023-04-19T04:29:43.614Z,88.92
2023-04-19T04:32:11.350Z,88.69
2023-04-19T04:34:39.911Z,88.66
2023-04-19T04:37:07.515Z,88.56
2023-04-19T04:39:35.045Z,88.59
2023-04-19T04:42:02.697Z,88.57
2023-04-19T04:44:30.274Z,88.55
2023-04-19T04:46:57.842Z,88.44
2023-04-19T04:49:25.390Z,88.38
2023-04-19T04:51:53.025Z,88.28
2023-04-19T04:54:20.591Z,88.45
2023-04-19T04:56:48.182Z,88.28
2023-04-19T04:59:15.752Z,87.88
2023-04-19T05:01:43.390Z,87.62
2023-04-19T05:04:11.026Z,87.33
2023-04-19T05:06:38.600Z,86.97
2023-04-19T05:09:06.588Z,86.60
2023-04-19T05:11:34.153Z,86.37
2023-04-19T05:14:02.494Z,86.16
2023-04-19T05:16:30.238Z,86.13
2023-04-19T05:18:57.815Z,85.97
2023-04-19T05:21:25.532Z,85.50
2023-04-19T05:23:53.410Z,85.05
2023-04-19T05:26:21.104Z,84.93
2023-04-19T05:28:48.682Z,84.86
2023-04-19T05:31:16.344Z,84.72
2023-04-19T05:33:43.955Z,84.51
2023-04-19T05:36:11.527Z,84.64
2023-04-19T05:38:39.103Z,84.46
2023-04-19T05:41:06.641Z,84.35
2023-04-19T05:43:34.259Z,83.91
2023-04-19T05:46:01.891Z,84.03
2023-04-19T05:48:29.520Z,84.17
2023-04-19T05:50:57.182Z,84.22
2023-04-19T05:53:24.790Z,84.10
2023-04-19T05:55:52.394Z,83.78
2023-04-19T05:58:20.031Z,83.26
2023-04-19T06:00:47.639Z,82.83
2023-04-19T06:03:15.410Z,82.86
2023-04-19T06:05:43.431Z,82.29
2023-04-19T06:08:11.050Z,82.76
2023-04-19T06:10:52.608Z,81.90
2023-04-19T06:13:23.273Z,81.21
2023-04-19T06:15:50.854Z,80.77
2023-04-19T06:18:18.869Z,79.59
2023-04-19T06:20:47.486Z,77.84
2023-04-19T06:23:15.354Z,76.85
2023-04-19T06:25:43.067Z,75.82
2023-04-19T06:28:11.265Z,75.23
2023-04-19T06:30:38.844Z,75.99
2023-04-19T06:33:06.564Z,75.92
2023-04-19T06:35:34.200Z,75.67
2023-04-19T06:38:01.780Z,74.92
2023-04-19T06:40:29.607Z,75.31
2023-04-19T06:42:57.179Z,75.83
2023-04-19T06:45:24.759Z,75.56
2023-04-19T06:47:52.421Z,75.44
2023-04-19T06:50:20.131Z,74.93
2023-04-19T06:52:47.715Z,74.93
2023-04-19T06:55:15.271Z,74.54
2023-04-19T06:57:42.823Z,74.38
2023-04-19T07:00:10.976Z,75.20
2023-04-19T07:02:38.749Z,75.51
2023-04-19T07:05:07.008Z,75.21
2023-04-19T07:07:34.565Z,74.47
2023-04-19T07:10:02.151Z,74.12
2023-04-19T07:12:29.786Z,74.38
2023-04-19T07:14:57.373Z,74.79
2023-04-19T07:17:24.979Z,74.96
2023-04-19T07:19:52.582Z,74.74
2023-04-19T07:22:20.139Z,74.38
2023-04-19T07:24:47.738Z,74.74
2023-04-19T07:27:16.314Z,73.91
2023-04-19T07:29:43.934Z,74.33
2023-04-19T07:32:11.522Z,73.89
2023-04-19T07:34:40.778Z,73.58
2023-04-19T07:37:08.508Z,72.53
2023-04-19T07:39:36.110Z,72.68
2023-04-19T07:42:03.751Z,72.27
2023-04-19T07:44:33.766Z,73.27
2023-04-19T07:47:01.342Z,73.79
2023-04-19T07:49:28.919Z,73.50
2023-04-19T07:51:56.503Z,73.52
2023-04-19T07:54:24.101Z,73.56
2023-04-19T07:56:51.643Z,73.93
2023-04-19T07:59:19.459Z,74.25
2023-04-19T08:01:47.126Z,74.03
2023-04-19T08:04:15.140Z,74.64
2023-04-19T08:06:42.972Z,75.19
2023-04-19T08:09:10.530Z,75.36
2023-04-19T08:11:38.106Z,75.55
2023-04-19T08:14:15.191Z,76.00
2023-04-19T08:19:23.687Z,76.53
2023-04-19T08:21:51.269Z,76.68
2023-04-19T08:24:18.997Z,76.98
2023-04-19T08:26:46.637Z,76.99
2023-04-19T08:29:14.247Z,76.65
2023-04-19T08:31:44.049Z,76.58
2023-04-19T08:34:11.702Z,76.64
2023-04-19T08:36:43.604Z,76.34
2023-04-19T08:39:31.760Z,75.71
2023-04-19T08:42:18.340Z,75.47
2023-04-19T08:45:13.605Z,75.23
2023-04-19T08:47:58.977Z,74.76
2023-04-19T08:50:34.379Z,75.23
2023-04-19T08:55:51.023Z,74.03
2023-04-19T08:58:37.046Z,73.88
2023-04-19T09:01:26.660Z,72.98
2023-04-19T09:04:10.176Z,72.39
2023-04-19T09:06:44.638Z,71.93
2023-04-19T09:11:57.550Z,70.59
2023-04-19T09:14:27.249Z,69.26
2023-04-19T09:17:11.740Z,68.25
2023-04-19T09:19:50.055Z,68.04
2023-04-19T09:22:18.750Z,67.38
2023-04-19T09:27:26.007Z,65.28
2023-04-19T09:29:55.053Z,65.28
2023-04-19T09:32:23.886Z,64.95
2023-04-19T09:34:53.775Z,64.01
2023-04-19T09:39:55.436Z,61.36
2023-04-19T09:42:42.212Z,58.67
2023-04-19T09:47:41.465Z,58.59
2023-04-19T09:52:40.896Z,55.42
2023-04-19T09:55:22.180Z,55.89
2023-04-19T09:57:54.381Z,55.19
2023-04-19T10:00:22.908Z,54.63
2023-04-19T10:02:56.407Z,54.87
2023-04-19T10:05:24.737Z,53.12
2023-04-19T10:07:56.489Z,53.04
2023-04-19T10:10:40.389Z,52.75
2023-04-19T10:15:51.974Z,53.24
2023-04-19T10:18:21.479Z,54.12
2023-04-19T10:21:03.988Z,53.97
2023-04-19T10:23:32.712Z,54.14
2023-04-19T10:26:00.322Z,53.87
2023-04-19T10:28:31.024Z,55.28
2023-04-19T10:31:04.607Z,56.67
2023-04-19T10:33:37.483Z,58.08
2023-04-19T10:36:09.421Z,60.19
2023-04-19T10:38:40.042Z,61.78
2023-04-19T10:41:07.786Z,62.82
2023-04-19T10:43:36.444Z,63.77
2023-04-19T10:46:16.859Z,64.08
2023-04-19T10:49:01.376Z,65.21
2023-04-19T10:51:33.609Z,65.83
2023-04-19T10:54:01.947Z,66.68
2023-04-19T10:56:35.308Z,66.58
2023-04-19T10:59:02.871Z,66.94
2023-04-19T11:01:36.406Z,67.63
2023-04-19T11:04:04.223Z,67.48
2023-04-19T11:06:33.029Z,67.43
2023-04-19T11:09:00.941Z,68.01
2023-04-19T11:11:28.738Z,67.95
2023-04-19T11:13:57.528Z,68.00
2023-04-19T11:16:37.958Z,68.11
2023-04-19T11:19:30.399Z,67.84
2023-04-19T11:21:59.363Z,68.71
2023-04-19T11:24:26.954Z,69.31
2023-04-19T11:26:56.231Z,69.83
2023-04-19T11:29:24.714Z,69.74
2023-04-19T11:31:52.373Z,69.89
2023-04-19T11:34:23.025Z,70.12
2023-04-19T11:36:53.421Z,70.62
2023-04-19T11:39:21.019Z,70.89
2023-04-19T11:41:48.601Z,71.07
2023-04-19T11:44:18.281Z,71.36
2023-04-19T11:47:00.175Z,71.36
2023-04-19T11:49:33.458Z,71.41
2023-04-19T11:52:06.307Z,71.54
2023-04-19T11:54:34.280Z,71.75
2023-04-19T11:57:07.220Z,72.00
2023-04-19T11:59:36.349Z,71.94
2023-04-19T12:02:12.331Z,72.22
2023-04-19T12:04:41.615Z,72.20
2023-04-19T12:07:10.416Z,72.54
2023-04-19T12:09:38.928Z,73.07
2023-04-19T12:12:06.568Z,73.24
2023-04-19T12:14:34.215Z,73.27
2023-04-19T12:17:07.764Z,73.68
2023-04-19T12:19:37.302Z,73.71
2023-04-19T12:22:09.764Z,73.58
2023-04-19T12:24:38.023Z,73.82
2023-04-19T12:27:05.703Z,74.02
2023-04-19T12:29:34.985Z,74.08
2023-04-19T12:32:03.277Z,74.45
2023-04-19T12:34:31.379Z,74.49
2023-04-19T12:36:59.064Z,74.45
2023-04-19T12:39:26.711Z,74.68
2023-04-19T12:41:54.454Z,74.96
2023-04-19T12:44:22.296Z,74.90
2023-04-19T12:46:49.961Z,75.01
2023-04-19T12:49:18.914Z,75.32
2023-04-19T12:51:46.549Z,75.25
2023-04-19T12:54:15.194Z,75.35
2023-04-19T12:56:42.926Z,75.80
2023-04-19T12:59:10.540Z,75.79
2023-04-19T13:01:38.100Z,75.99
2023-04-19T13:04:05.999Z,76.28
2023-04-19T13:06:33.863Z,76.52
2023-04-19T13:09:01.753Z,76.58
2023-04-19T13:11:29.605Z,76.42
2023-04-19T13:13:57.260Z,76.38
2023-04-19T13:16:24.956Z,76.37
2023-04-19T13:18:52.795Z,76.22
2023-04-19T13:21:20.777Z,76.45
2023-04-19T13:23:48.376Z,76.65
2023-04-19T13:26:16.063Z,76.67
2023-04-19T13:28:43.592Z,76.83
2023-04-19T13:31:11.308Z,77.28
2023-04-19T13:33:38.962Z,77.51
2023-04-19T13:36:06.991Z,77.58
2023-04-19T13:38:34.676Z,77.77
2023-04-19T13:41:03.771Z,77.65
2023-04-19T13:43:31.361Z,78.22
2023-04-19T13:45:58.968Z,78.70
2023-04-19T13:48:26.630Z,79.03
2023-04-19T13:50:55.722Z,79.73
2023-04-19T13:53:24.383Z,80.01
2023-04-19T13:55:52.270Z,80.23
2023-04-19T13:58:19.837Z,80.68
2023-04-19T14:00:47.781Z,81.09
2023-04-19T14:03:15.537Z,81.19
2023-04-19T14:05:43.741Z,81.24
2023-04-19T14:08:11.306Z,81.51
2023-04-19T14:10:38.920Z,81.83
2023-04-19T14:13:06.459Z,81.93
2023-04-19T14:15:34.028Z,82.27
2023-04-19T14:18:02.334Z,82.52
2023-04-19T14:20:29.940Z,82.89
2023-04-19T14:22:57.506Z,82.93
2023-04-19T14:25:25.027Z,83.49
2023-04-19T14:27:52.756Z,83.49
2023-04-19T14:30:20.427Z,83.33
2023-04-19T14:32:48.135Z,83.45
2023-04-19T14:35:15.780Z,83.35
2023-04-19T14:37:43.339Z,83.57
2023-04-19T14:40:11.448Z,83.53
2023-04-19T14:42:38.973Z,83.73
2023-04-19T14:45:07.272Z,83.91
2023-04-19T14:47:34.868Z,83.88
2023-04-19T14:50:02.609Z,83.94
2023-04-19T14:52:30.216Z,84.04
2023-04-19T14:54:57.770Z,83.96
2023-04-19T14:57:27.059Z,84.09
2023-04-19T14:59:55.830Z,84.04
2023-04-19T15:02:24.607Z,84.40
2023-04-19T15:04:52.784Z,84.39
2023-04-19T15:07:20.797Z,84.57
2023-04-19T15:09:48.525Z,84.93
2023-04-19T15:12:16.134Z,84.84
2023-04-19T15:14:43.721Z,84.87
2023-04-19T15:17:11.324Z,84.72
2023-04-19T15:19:39.143Z,84.57
2023-04-19T15:22:06.723Z,84.72
2023-04-19T15:24:34.514Z,84.53
2023-04-19T15:27:02.109Z,84.53
2023-04-19T15:29:29.992Z,84.38
2023-04-19T15:31:57.639Z,84.44
2023-04-19T15:34:25.247Z,84.41
2023-04-19T15:36:52.828Z,84.76
2023-04-19T15:39:20.382Z,84.66
2023-04-19T15:41:49.227Z,84.76
2023-04-19T15:44:16.982Z,84.92
2023-04-19T15:46:44.607Z,84.86
2023-04-19T15:49:12.176Z,84.94
2023-04-19T15:51:39.740Z,85.15
2023-04-19T15:54:07.294Z,85.44
2023-04-19T15:56:34.892Z,85.43
2023-04-19T15:59:02.487Z,85.59
2023-04-19T16:01:30.082Z,85.52
2023-04-19T16:03:57.820Z,85.69
2023-04-19T16:06:25.644Z,85.77
2023-04-19T16:08:53.232Z,85.60
2023-04-19T16:11:21.085Z,85.73
2023-04-19T16:13:48.762Z,85.69
2023-04-19T16:16:16.413Z,85.70
2023-04-19T16:18:43.971Z,85.82
2023-04-19T16:21:11.549Z,85.79
2023-04-19T16:23:39.118Z,85.74
2023-04-19T16:26:06.695Z,85.76
2023-04-19T16:28:34.320Z,86.02
2023-04-19T16:31:01.870Z,85.91
2023-04-19T16:33:29.450Z,85.78
2023-04-19T16:35:57.040Z,85.68
2023-04-19T16:38:24.625Z,85.78
2023-04-19T16:40:52.203Z,85.88
2023-04-19T16:43:19.771Z,85.82
2023-04-19T16:45:48.184Z,85.87
2023-04-19T16:48:15.949Z,85.80
2023-04-19T16:50:43.557Z,85.84
2023-04-19T16:53:11.277Z,85.97
2023-04-19T16:55:38.910Z,86.06
2023-04-19T16:58:06.600Z,86.24
2023-04-19T17:00:34.214Z,86.21
2023-04-19T17:03:01.986Z,86.28
2023-04-19T17:05:29.693Z,86.43
2023-04-19T17:07:57.253Z,86.47
2023-04-19T17:10:26.107Z,86.43
2023-04-19T17:12:53.693Z,86.42
2023-04-19T17:15:21.242Z,86.42
2023-04-19T17:17:48.866Z,86.57
2023-04-19T17:20:16.714Z,86.46
2023-04-19T17:22:44.332Z,86.50
2023-04-19T17:25:11.929Z,86.60
2023-04-19T17:27:39.478Z,86.51
2023-04-19T17:30:07.853Z,86.60
2023-04-19T17:32:35.529Z,86.75
2023-04-19T17:35:04.076Z,86.54
2023-04-19T17:37:31.734Z,86.63
2023-04-19T17:39:59.435Z,86.54
2023-04-19T17:42:27.020Z,86.61
2023-04-19T17:44:54.606Z,86.53
2023-04-19T17:47:22.178Z,86.53
2023-04-19T17:49:50.158Z,86.66
2023-04-19T17:52:17.874Z,86.59
2023-04-19T17:54:45.863Z,86.59
2023-04-19T17:57:13.474Z,86.58
2023-04-19T17:59:41.041Z,86.62
2023-04-19T18:02:10.425Z,86.73
2023-04-19T18:04:38.692Z,86.78
2023-04-19T18:07:06.336Z,86.69
2023-04-19T18:09:33.885Z,86.73
2023-04-19T18:12:01.569Z,86.61
2023-04-19T18:14:29.437Z,86.69
2023-04-19T18:16:57.294Z,86.52
2023-04-19T18:19:24.930Z,86.40
2023-04-19T18:21:52.485Z,86.35
2023-04-19T18:24:20.116Z,86.57
2023-04-19T18:26:47.690Z,86.52
2023-04-19T18:29:15.902Z,86.50
2023-04-19T18:31:43.735Z,86.46
2023-04-19T18:34:12.537Z,86.50
2023-04-19T18:36:40.202Z,86.63
2023-04-19T18:39:07.778Z,86.55
2023-04-19T18:41:35.337Z,86.37
2023-04-19T18:46:33.376Z,86.69
2023-04-19T18:49:00.939Z,86.59
2023-04-19T18:51:28.500Z,86.82
2023-04-19T18:53:56.137Z,86.57
2023-04-19T18:56:54.271Z,86.57
2023-04-19T18:59:11.511Z,86.63
2023-04-19T19:01:39.188Z,86.58
2023-04-19T19:04:28.271Z,86.45
2023-04-19T19:06:54.700Z,86.51
2023-04-19T19:09:23.350Z,86.58
2023-04-19T19:11:56.545Z,86.63
2023-04-19T19:14:24.755Z,86.72
2023-04-19T19:16:52.906Z,86.68
2023-04-19T19:19:20.776Z,86.83
2023-04-19T19:21:48.330Z,87.02
2023-04-19T19:24:15.895Z,86.97
2023-04-19T19:26:43.488Z,87.01
2023-04-19T19:29:15.224Z,86.94
2023-04-19T19:31:44.003Z,86.84
2023-04-19T19:34:24.282Z,86.81
2023-04-19T19:36:55.083Z,86.79
2023-04-19T19:39:22.681Z,86.87
2023-04-19T19:42:05.367Z,86.82
2023-04-19T19:44:34.041Z,86.91
2023-04-19T19:47:01.641Z,86.88
2023-04-19T19:49:29.378Z,87.09
2023-04-19T19:51:59.327Z,87.24
2023-04-19T19:54:27.422Z,87.31
2023-04-19T19:59:29.967Z,87.35
2023-04-19T20:01:59.631Z,87.37
2023-04-19T20:04:27.533Z,87.17
2023-04-19T20:09:27.353Z,87.18
2023-04-19T20:11:55.224Z,87.10
2023-04-19T20:14:23.530Z,87.15
2023-04-19T20:16:51.849Z,87.14
2023-04-19T20:19:19.562Z,87.09
2023-04-19T20:21:47.120Z,87.16
2023-04-19T20:24:14.702Z,86.98
2023-04-19T20:26:42.207Z,86.84
2023-04-19T20:29:09.933Z,86.95
2023-04-19T20:31:37.523Z,86.89
2023-04-19T20:34:05.081Z,86.94
2023-04-19T20:36:32.659Z,87.02
2023-04-19T20:39:00.240Z,86.98
2023-04-19T20:41:27.891Z,86.98
2023-04-19T20:43:55.485Z,87.24
2023-04-19T20:46:23.500Z,87.39
2023-04-19T20:48:51.147Z,87.38
2023-04-19T20:51:18.731Z,87.64
2023-04-19T20:53:46.322Z,87.91
2023-04-19T20:56:13.914Z,87.84
2023-04-19T20:58:41.478Z,87.85
2023-04-19T21:01:09.425Z,87.68
2023-04-19T21:03:37.295Z,87.78
2023-04-19T21:06:04.966Z,88.01
2023-04-19T21:08:32.543Z,88.14
2023-04-19T21:11:00.257Z,88.52
2023-04-19T21:13:27.779Z,88.67
2023-04-19T21:15:55.783Z,88.79
2023-04-19T21:18:23.379Z,88.83
2023-04-19T21:20:50.947Z,89.06
2023-04-19T21:23:18.513Z,89.26
2023-04-19T21:25:46.080Z,89.17
2023-04-19T21:28:13.670Z,89.18
2023-04-19T21:30:41.258Z,89.43
2023-04-19T21:33:09.786Z,89.34
2023-04-19T21:35:37.447Z,89.51
2023-04-19T21:38:05.008Z,89.33
2023-04-19T21:40:32.556Z,89.24
2023-04-19T21:43:00.119Z,89.21
2023-04-19T21:45:27.775Z,89.20
2023-04-19T21:47:55.434Z,89.15
2023-04-19T21:50:23.100Z,89.09
2023-04-19T21:52:50.680Z,89.11
2023-04-19T21:55:18.810Z,89.09
2023-04-19T21:57:46.448Z,88.95
2023-04-19T22:00:14.362Z,88.85
2023-04-19T22:02:42.042Z,88.70
2023-04-19T22:05:09.925Z,88.80
2023-04-19T22:07:37.462Z,88.78
2023-04-19T22:10:05.576Z,88.75
2023-04-19T22:12:33.236Z,88.65
2023-04-19T22:15:01.921Z,88.67
2023-04-19T22:17:29.626Z,88.55
2023-04-19T22:19:57.214Z,88.59
2023-04-19T22:22:25.273Z,88.69
2023-04-19T22:24:56.726Z,88.69
2023-04-19T22:27:25.630Z,88.84
2023-04-19T22:29:53.220Z,89.00
2023-04-19T22:32:20.887Z,88.96
2023-04-19T22:34:48.495Z,89.00
2023-04-19T22:37:16.048Z,89.03
2023-04-19T22:39:43.642Z,89.07
2023-04-19T22:42:11.200Z,89.02
2023-04-19T22:44:38.744Z,89.13
2023-04-19T22:47:06.318Z,89.24
2023-04-19T22:49:33.920Z,89.32
2023-04-19T22:52:01.486Z,89.34
2023-04-19T22:54:29.058Z,89.31
2023-04-19T22:56:56.626Z,89.21
2023-04-19T22:59:24.219Z,89.07
2023-04-19T23:01:51.920Z,89.00
2023-04-19T23:04:19.586Z,89.09
2023-04-19T23:06:47.163Z,89.07
2023-04-19T23:09:15.127Z,89.10
2023-04-19T23:11:42.966Z,89.09
2023-04-19T23:14:10.574Z,89.11
2023-04-19T23:16:38.146Z,89.07
2023-04-19T23:19:07.120Z,89.03
2023-04-19T23:21:34.757Z,88.95
2023-04-19T23:24:02.340Z,88.96
2023-04-19T23:26:29.918Z,88.96
2023-04-19T23:28:57.517Z,88.88
2023-04-19T23:31:25.129Z,88.83
2023-04-19T23:33:52.747Z,88.72
2023-04-19T23:36:20.297Z,88.79
2023-04-19T23:38:47.826Z,88.83
2023-04-19T23:41:15.415Z,88.77
2023-04-19T23:43:45.430Z,88.85
2023-04-19T23:46:12.998Z,88.65
2023-04-19T23:48:40.617Z,88.84
2023-04-19T23:51:08.374Z,88.73
2023-04-19T23:53:35.958Z,88.81
2023-04-19T23:56:03.593Z,88.77
2023-04-19T23:58:31.138Z,88.88
